sensor_id;sensor_type;location;lat;lon;timestamp;temperature;humidity
25280;DHT22;13225;47.804;12.116;2022-09-09T00:04:36;15.90;99.90
25280;DHT22;13225;47.804;12.116;2022-09-09T00:09:46;15.80;99.90
25280;DHT22;13225;47.804;12.116;2022-09-09T00:14:59;15.80;99.90
25280;DHT22;13225;47.804;12.116;2022-09-09T00:17:47;15.90;99.90
25280;DHT22;13225;47.804;12.116;2022-09-09T00:20:36;15.90;99.90
25280;DHT22;13225;47.804;12.116;2022-09-09T00:23:20;15.90;99.90
25280;DHT22;13225;47.804;12.116;2022-09-09T00:28:41;15.70;99.90
25280;DHT22;13225;47.804;12.116;2022-09-09T00:31:14;15.70;99.90
25280;DHT22;13225;47.804;12.116;2022-09-09T00:33:41;15.70;99.90
25280;DHT22;13225;47.804;12.116;2022-09-09T00:36:18;15.70;99.90
25280;DHT22;13225;47.804;12.116;2022-09-09T00:38:51;15.70;99.90
25280;DHT22;13225;47.804;12.116;2022-09-09T00:43:57;15.70;99.90
25280;DHT22;13225;47.804;12.116;2022-09-09T00:55:08;15.70;99.90
25280;DHT22;13225;47.804;12.116;2022-09-09T00:57:39;15.60;99.90
25280;DHT22;13225;47.804;12.116;2022-09-09T01:00:24;15.40;99.90
25280;DHT22;13225;47.804;12.116;2022-09-09T01:16:54;15.20;99.90
25280;DHT22;13225;47.804;12.116;2022-09-09T01:19:44;15.20;99.90
25280;DHT22;13225;47.804;12.116;2022-09-09T01:27:51;15.20;99.90
25280;DHT22;13225;47.804;12.116;2022-09-09T01:30:19;15.20;99.90
25280;DHT22;13225;47.804;12.116;2022-09-09T01:32:52;15.20;99.90
25280;DHT22;13225;47.804;12.116;2022-09-09T01:35:52;15.20;99.90
25280;DHT22;13225;47.804;12.116;2022-09-09T01:38:10;15.20;99.90
25280;DHT22;13225;47.804;12.116;2022-09-09T01:40:36;15.10;99.90
25280;DHT22;13225;47.804;12.116;2022-09-09T01:43:02;15.10;99.90
25280;DHT22;13225;47.804;12.116;2022-09-09T01:45:29;15.10;99.90
25280;DHT22;13225;47.804;12.116;2022-09-09T01:47:56;15.10;99.90
25280;DHT22;13225;47.804;12.116;2022-09-09T01:50:22;15.10;99.90
25280;DHT22;13225;47.804;12.116;2022-09-09T01:52:56;15.00;99.90
25280;DHT22;13225;47.804;12.116;2022-09-09T01:55:37;14.90;99.90
25280;DHT22;13225;47.804;12.116;2022-09-09T02:01:02;14.90;99.90
25280;DHT22;13225;47.804;12.116;2022-09-09T02:03:32;14.90;99.90
25280;DHT22;13225;47.804;12.116;2022-09-09T02:08:54;14.90;99.90
25280;DHT22;13225;47.804;12.116;2022-09-09T02:11:26;14.90;99.90
25280;DHT22;13225;47.804;12.116;2022-09-09T02:14:12;14.80;99.90
25280;DHT22;13225;47.804;12.116;2022-09-09T02:16:55;14.80;99.90
25280;DHT22;13225;47.804;12.116;2022-09-09T02:19:29;14.70;99.90
25280;DHT22;13225;47.804;12.116;2022-09-09T02:21:59;14.70;99.90
25280;DHT22;13225;47.804;12.116;2022-09-09T02:24:27;14.80;99.90
25280;DHT22;13225;47.804;12.116;2022-09-09T02:26:55;14.90;99.90
25280;DHT22;13225;47.804;12.116;2022-09-09T02:29:33;14.80;99.90
25280;DHT22;13225;47.804;12.116;2022-09-09T02:32:01;14.80;99.90
25280;DHT22;13225;47.804;12.116;2022-09-09T02:34:28;14.80;99.90
25280;DHT22;13225;47.804;12.116;2022-09-09T02:36:57;14.80;99.90
25280;DHT22;13225;47.804;12.116;2022-09-09T02:39:27;14.80;99.90
25280;DHT22;13225;47.804;12.116;2022-09-09T02:41:52;14.80;99.90
25280;DHT22;13225;47.804;12.116;2022-09-09T02:44:18;14.80;99.90
25280;DHT22;13225;47.804;12.116;2022-09-09T02:55:43;14.70;99.90
25280;DHT22;13225;47.804;12.116;2022-09-09T02:58:14;14.60;99.90
25280;DHT22;13225;47.804;12.116;2022-09-09T03:00:45;14.60;99.90
25280;DHT22;13225;47.804;12.116;2022-09-09T03:03:10;14.60;99.90
25280;DHT22;13225;47.804;12.116;2022-09-09T03:05:37;14.60;99.90
25280;DHT22;13225;47.804;12.116;2022-09-09T03:08:04;14.60;99.90
25280;DHT22;13225;47.804;12.116;2022-09-09T03:10:31;14.60;99.90
25280;DHT22;13225;47.804;12.116;2022-09-09T03:12:57;14.60;99.90
25280;DHT22;13225;47.804;12.116;2022-09-09T03:15:23;14.60;99.90
25280;DHT22;13225;47.804;12.116;2022-09-09T03:17:51;14.60;99.90
25280;DHT22;13225;47.804;12.116;2022-09-09T03:20:18;14.60;99.90
25280;DHT22;13225;47.804;12.116;2022-09-09T03:22:44;14.60;99.90
25280;DHT22;13225;47.804;12.116;2022-09-09T03:25:10;14.60;99.90
25280;DHT22;13225;47.804;12.116;2022-09-09T03:27:36;14.50;99.90
25280;DHT22;13225;47.804;12.116;2022-09-09T03:30:01;14.60;99.90
25280;DHT22;13225;47.804;12.116;2022-09-09T03:32:29;14.50;99.90
25280;DHT22;13225;47.804;12.116;2022-09-09T03:34:56;14.60;99.90
25280;DHT22;13225;47.804;12.116;2022-09-09T03:37:22;14.60;99.90
25280;DHT22;13225;47.804;12.116;2022-09-09T03:39:48;14.60;99.90
25280;DHT22;13225;47.804;12.116;2022-09-09T03:42:14;14.60;99.90
25280;DHT22;13225;47.804;12.116;2022-09-09T03:44:40;14.60;99.90
25280;DHT22;13225;47.804;12.116;2022-09-09T03:47:07;14.70;99.90
25280;DHT22;13225;47.804;12.116;2022-09-09T03:49:33;14.60;99.90
25280;DHT22;13225;47.804;12.116;2022-09-09T03:51:58;14.70;99.90
25280;DHT22;13225;47.804;12.116;2022-09-09T03:54:25;14.70;99.90
25280;DHT22;13225;47.804;12.116;2022-09-09T03:56:50;14.70;99.90
25280;DHT22;13225;47.804;12.116;2022-09-09T03:59:16;14.80;99.90
25280;DHT22;13225;47.804;12.116;2022-09-09T04:01:42;14.70;99.90
25280;DHT22;13225;47.804;12.116;2022-09-09T04:04:08;14.80;99.90
25280;DHT22;13225;47.804;12.116;2022-09-09T04:06:34;14.80;99.90
25280;DHT22;13225;47.804;12.116;2022-09-09T04:09:00;14.80;99.90
25280;DHT22;13225;47.804;12.116;2022-09-09T04:11:28;14.80;99.90
25280;DHT22;13225;47.804;12.116;2022-09-09T04:13:54;14.80;99.90
25280;DHT22;13225;47.804;12.116;2022-09-09T04:16:19;14.80;99.90
25280;DHT22;13225;47.804;12.116;2022-09-09T04:18:45;14.80;99.90
25280;DHT22;13225;47.804;12.116;2022-09-09T04:21:11;14.80;99.90
25280;DHT22;13225;47.804;12.116;2022-09-09T04:23:38;14.80;99.90
25280;DHT22;13225;47.804;12.116;2022-09-09T04:26:04;14.80;99.90
25280;DHT22;13225;47.804;12.116;2022-09-09T04:28:32;14.80;99.90
25280;DHT22;13225;47.804;12.116;2022-09-09T04:31:05;14.80;99.90
25280;DHT22;13225;47.804;12.116;2022-09-09T04:33:30;14.80;99.90
25280;DHT22;13225;47.804;12.116;2022-09-09T04:35:57;14.80;99.90
25280;DHT22;13225;47.804;12.116;2022-09-09T04:38:22;14.80;99.90
25280;DHT22;13225;47.804;12.116;2022-09-09T04:40:50;14.80;99.90
25280;DHT22;13225;47.804;12.116;2022-09-09T04:43:17;14.80;99.90
25280;DHT22;13225;47.804;12.116;2022-09-09T04:45:47;14.80;99.90
25280;DHT22;13225;47.804;12.116;2022-09-09T04:48:13;14.80;99.90
25280;DHT22;13225;47.804;12.116;2022-09-09T04:50:39;14.80;99.90
25280;DHT22;13225;47.804;12.116;2022-09-09T04:53:06;14.80;99.90
25280;DHT22;13225;47.804;12.116;2022-09-09T04:55:32;14.90;99.90
25280;DHT22;13225;47.804;12.116;2022-09-09T04:58:07;14.90;99.90
25280;DHT22;13225;47.804;12.116;2022-09-09T05:00:34;14.90;99.90
25280;DHT22;13225;47.804;12.116;2022-09-09T05:03:07;15.00;99.90
25280;DHT22;13225;47.804;12.116;2022-09-09T05:05:34;14.90;99.90
25280;DHT22;13225;47.804;12.116;2022-09-09T05:08:04;15.00;99.90
25280;DHT22;13225;47.804;12.116;2022-09-09T05:10:31;14.90;99.90
25280;DHT22;13225;47.804;12.116;2022-09-09T05:12:58;14.90;99.90
25280;DHT22;13225;47.804;12.116;2022-09-09T05:15:24;14.90;99.90
25280;DHT22;13225;47.804;12.116;2022-09-09T05:17:50;14.90;99.90
25280;DHT22;13225;47.804;12.116;2022-09-09T05:20:18;15.00;99.90
25280;DHT22;13225;47.804;12.116;2022-09-09T05:22:44;15.00;99.90
25280;DHT22;13225;47.804;12.116;2022-09-09T05:25:09;15.00;99.90
25280;DHT22;13225;47.804;12.116;2022-09-09T05:27:35;15.10;99.90
25280;DHT22;13225;47.804;12.116;2022-09-09T05:30:01;15.10;99.90
25280;DHT22;13225;47.804;12.116;2022-09-09T05:32:26;15.10;99.90
25280;DHT22;13225;47.804;12.116;2022-09-09T05:34:53;15.20;99.90
25280;DHT22;13225;47.804;12.116;2022-09-09T05:37:19;15.20;99.90
25280;DHT22;13225;47.804;12.116;2022-09-09T05:39:44;15.30;99.90
25280;DHT22;13225;47.804;12.116;2022-09-09T05:42:10;15.40;99.90
25280;DHT22;13225;47.804;12.116;2022-09-09T05:44:36;15.40;99.90
25280;DHT22;13225;47.804;12.116;2022-09-09T05:47:03;15.50;99.90
25280;DHT22;13225;47.804;12.116;2022-09-09T05:49:28;15.60;99.90
25280;DHT22;13225;47.804;12.116;2022-09-09T05:51:54;15.60;99.90
25280;DHT22;13225;47.804;12.116;2022-09-09T05:54:22;15.70;99.90
25280;DHT22;13225;47.804;12.116;2022-09-09T05:56:48;15.70;99.90
25280;DHT22;13225;47.804;12.116;2022-09-09T05:59:16;15.70;99.90
25280;DHT22;13225;47.804;12.116;2022-09-09T06:01:42;15.80;99.90
25280;DHT22;13225;47.804;12.116;2022-09-09T06:04:07;15.80;99.90
25280;DHT22;13225;47.804;12.116;2022-09-09T06:06:36;15.80;99.90
25280;DHT22;13225;47.804;12.116;2022-09-09T06:09:05;15.70;99.90
25280;DHT22;13225;47.804;12.116;2022-09-09T06:11:41;15.80;99.90
25280;DHT22;13225;47.804;12.116;2022-09-09T06:14:07;15.80;99.90
25280;DHT22;13225;47.804;12.116;2022-09-09T06:16:33;15.80;99.90
25280;DHT22;13225;47.804;12.116;2022-09-09T06:19:00;15.80;99.90
25280;DHT22;13225;47.804;12.116;2022-09-09T06:21:36;15.70;99.90
25280;DHT22;13225;47.804;12.116;2022-09-09T06:24:06;15.60;99.90
25280;DHT22;13225;47.804;12.116;2022-09-09T06:26:34;15.50;99.90
25280;DHT22;13225;47.804;12.116;2022-09-09T06:29:01;15.50;99.90
25280;DHT22;13225;47.804;12.116;2022-09-09T06:31:30;15.50;99.90
25280;DHT22;13225;47.804;12.116;2022-09-09T06:33:57;15.50;99.90
25280;DHT22;13225;47.804;12.116;2022-09-09T06:36:34;15.50;99.90
25280;DHT22;13225;47.804;12.116;2022-09-09T06:39:01;15.60;99.90
25280;DHT22;13225;47.804;12.116;2022-09-09T06:41:28;15.50;99.90
25280;DHT22;13225;47.804;12.116;2022-09-09T06:43:54;15.60;99.90
25280;DHT22;13225;47.804;12.116;2022-09-09T06:46:26;15.50;99.90
25280;DHT22;13225;47.804;12.116;2022-09-09T06:48:55;15.50;99.90
25280;DHT22;13225;47.804;12.116;2022-09-09T06:51:26;15.60;99.90
25280;DHT22;13225;47.804;12.116;2022-09-09T06:53:55;15.60;99.90
25280;DHT22;13225;47.804;12.116;2022-09-09T06:56:35;15.70;99.90
25280;DHT22;13225;47.804;12.116;2022-09-09T06:59:03;15.70;99.90
25280;DHT22;13225;47.804;12.116;2022-09-09T07:01:32;15.60;99.90
25280;DHT22;13225;47.804;12.116;2022-09-09T07:03:59;15.60;99.90
25280;DHT22;13225;47.804;12.116;2022-09-09T07:06:28;15.70;99.90
25280;DHT22;13225;47.804;12.116;2022-09-09T07:08:58;15.80;99.90
25280;DHT22;13225;47.804;12.116;2022-09-09T07:11:27;15.90;99.90
25280;DHT22;13225;47.804;12.116;2022-09-09T07:13:54;15.90;99.90
25280;DHT22;13225;47.804;12.116;2022-09-09T07:16:21;16.00;99.90
25280;DHT22;13225;47.804;12.116;2022-09-09T07:18:50;16.10;99.90
25280;DHT22;13225;47.804;12.116;2022-09-09T07:21:17;16.10;99.90
25280;DHT22;13225;47.804;12.116;2022-09-09T07:23:43;16.20;99.90
25280;DHT22;13225;47.804;12.116;2022-09-09T07:26:15;16.30;99.90
25280;DHT22;13225;47.804;12.116;2022-09-09T07:28:42;16.40;99.90
25280;DHT22;13225;47.804;12.116;2022-09-09T07:31:17;16.30;99.90
25280;DHT22;13225;47.804;12.116;2022-09-09T07:33:44;16.30;99.90
25280;DHT22;13225;47.804;12.116;2022-09-09T07:38:41;16.30;99.90
25280;DHT22;13225;47.804;12.116;2022-09-09T07:41:10;16.40;99.90
25280;DHT22;13225;47.804;12.116;2022-09-09T07:43:43;16.30;99.90
25280;DHT22;13225;47.804;12.116;2022-09-09T07:46:11;16.30;99.90
25280;DHT22;13225;47.804;12.116;2022-09-09T07:48:37;16.10;99.90
25280;DHT22;13225;47.804;12.116;2022-09-09T07:51:14;16.10;99.90
25280;DHT22;13225;47.804;12.116;2022-09-09T07:53:42;16.00;99.90
25280;DHT22;13225;47.804;12.116;2022-09-09T07:56:11;15.90;99.90
25280;DHT22;13225;47.804;12.116;2022-09-09T07:58:37;15.90;99.90
25280;DHT22;13225;47.804;12.116;2022-09-09T08:01:12;15.80;99.90
25280;DHT22;13225;47.804;12.116;2022-09-09T08:03:39;15.70;99.90
25280;DHT22;13225;47.804;12.116;2022-09-09T08:06:06;15.70;99.90
25280;DHT22;13225;47.804;12.116;2022-09-09T08:08:34;15.70;99.90
25280;DHT22;13225;47.804;12.116;2022-09-09T08:11:27;15.70;99.90
25280;DHT22;13225;47.804;12.116;2022-09-09T08:13:54;15.80;99.90
25280;DHT22;13225;47.804;12.116;2022-09-09T08:16:27;15.80;99.90
25280;DHT22;13225;47.804;12.116;2022-09-09T08:18:54;15.80;99.90
25280;DHT22;13225;47.804;12.116;2022-09-09T08:21:22;15.80;99.90
25280;DHT22;13225;47.804;12.116;2022-09-09T08:23:51;15.80;99.90
25280;DHT22;13225;47.804;12.116;2022-09-09T08:26:21;15.80;99.90
25280;DHT22;13225;47.804;12.116;2022-09-09T08:28:49;15.80;99.90
25280;DHT22;13225;47.804;12.116;2022-09-09T08:31:23;15.80;99.90
25280;DHT22;13225;47.804;12.116;2022-09-09T08:33:49;16.00;99.90
25280;DHT22;13225;47.804;12.116;2022-09-09T08:36:21;16.10;99.90
25280;DHT22;13225;47.804;12.116;2022-09-09T08:38:56;16.10;99.90
25280;DHT22;13225;47.804;12.116;2022-09-09T08:46:59;16.30;99.90
25280;DHT22;13225;47.804;12.116;2022-09-09T08:52:18;16.30;99.90
25280;DHT22;13225;47.804;12.116;2022-09-09T08:54:46;16.30;99.90
25280;DHT22;13225;47.804;12.116;2022-09-09T08:57:16;16.20;99.90
25280;DHT22;13225;47.804;12.116;2022-09-09T08:59:44;16.20;99.90
25280;DHT22;13225;47.804;12.116;2022-09-09T09:02:17;16.30;99.90
25280;DHT22;13225;47.804;12.116;2022-09-09T09:04:52;16.30;99.90
25280;DHT22;13225;47.804;12.116;2022-09-09T09:12:35;16.20;99.90
25280;DHT22;13225;47.804;12.116;2022-09-09T09:15:16;16.30;99.90
25280;DHT22;13225;47.804;12.116;2022-09-09T09:17:43;16.30;99.90
25280;DHT22;13225;47.804;12.116;2022-09-09T09:20:14;16.30;99.90
25280;DHT22;13225;47.804;12.116;2022-09-09T09:22:49;16.30;99.90
25280;DHT22;13225;47.804;12.116;2022-09-09T09:25:23;16.30;99.90
25280;DHT22;13225;47.804;12.116;2022-09-09T09:30:35;16.30;99.90
25280;DHT22;13225;47.804;12.116;2022-09-09T09:35:55;16.30;99.90
25280;DHT22;13225;47.804;12.116;2022-09-09T09:38:23;16.20;99.90
25280;DHT22;13225;47.804;12.116;2022-09-09T09:40:51;16.30;99.90
25280;DHT22;13225;47.804;12.116;2022-09-09T09:43:35;16.30;99.90
25280;DHT22;13225;47.804;12.116;2022-09-09T09:46:03;16.20;99.90
25280;DHT22;13225;47.804;12.116;2022-09-09T09:48:29;16.10;99.90
25280;DHT22;13225;47.804;12.116;2022-09-09T09:51:09;16.10;99.90
25280;DHT22;13225;47.804;12.116;2022-09-09T09:53:41;16.10;99.90
25280;DHT22;13225;47.804;12.116;2022-09-09T09:56:10;16.10;99.90
25280;DHT22;13225;47.804;12.116;2022-09-09T09:58:49;16.10;99.90
25280;DHT22;13225;47.804;12.116;2022-09-09T10:01:27;16.00;99.90
25280;DHT22;13225;47.804;12.116;2022-09-09T10:03:59;16.10;99.90
25280;DHT22;13225;47.804;12.116;2022-09-09T10:06:36;16.00;99.90
25280;DHT22;13225;47.804;12.116;2022-09-09T10:09:21;16.00;99.90
25280;DHT22;13225;47.804;12.116;2022-09-09T10:14:21;16.10;99.90
25280;DHT22;13225;47.804;12.116;2022-09-09T10:17:14;16.10;99.90
25280;DHT22;13225;47.804;12.116;2022-09-09T10:20:12;16.10;99.90
25280;DHT22;13225;47.804;12.116;2022-09-09T10:22:47;16.20;99.90
25280;DHT22;13225;47.804;12.116;2022-09-09T10:33:22;17.00;99.90
25280;DHT22;13225;47.804;12.116;2022-09-09T10:38:42;17.10;99.90
25280;DHT22;13225;47.804;12.116;2022-09-09T10:53:14;16.80;99.90
25280;DHT22;13225;47.804;12.116;2022-09-09T10:55:44;16.90;99.90
25280;DHT22;13225;47.804;12.116;2022-09-09T10:58:15;16.90;99.90
25280;DHT22;13225;47.804;12.116;2022-09-09T11:00:51;16.90;99.90
25280;DHT22;13225;47.804;12.116;2022-09-09T11:03:25;16.90;99.90
25280;DHT22;13225;47.804;12.116;2022-09-09T11:05:52;16.90;99.90
25280;DHT22;13225;47.804;12.116;2022-09-09T11:08:28;16.90;99.90
25280;DHT22;13225;47.804;12.116;2022-09-09T11:11:09;17.00;99.90
25280;DHT22;13225;47.804;12.116;2022-09-09T11:13:42;17.00;99.90
25280;DHT22;13225;47.804;12.116;2022-09-09T11:18:45;17.20;99.90
25280;DHT22;13225;47.804;12.116;2022-09-09T11:21:20;17.20;99.90
25280;DHT22;13225;47.804;12.116;2022-09-09T11:23:58;17.30;99.90
25280;DHT22;13225;47.804;12.116;2022-09-09T11:26:39;17.40;99.90
25280;DHT22;13225;47.804;12.116;2022-09-09T11:40:34;17.60;99.90
25280;DHT22;13225;47.804;12.116;2022-09-09T11:43:08;17.50;99.90
25280;DHT22;13225;47.804;12.116;2022-09-09T11:45:36;17.30;99.90
25280;DHT22;13225;47.804;12.116;2022-09-09T11:48:03;17.20;99.90
25280;DHT22;13225;47.804;12.116;2022-09-09T11:50:35;17.10;99.90
25280;DHT22;13225;47.804;12.116;2022-09-09T11:55:38;17.30;99.90
25280;DHT22;13225;47.804;12.116;2022-09-09T11:58:17;17.40;99.90
25280;DHT22;13225;47.804;12.116;2022-09-09T12:00:45;17.70;99.90
25280;DHT22;13225;47.804;12.116;2022-09-09T12:03:47;17.60;99.90
25280;DHT22;13225;47.804;12.116;2022-09-09T12:06:32;17.90;99.90
25280;DHT22;13225;47.804;12.116;2022-09-09T12:09:12;18.10;99.90
25280;DHT22;13225;47.804;12.116;2022-09-09T12:11:41;18.20;99.90
25280;DHT22;13225;47.804;12.116;2022-09-09T12:19:38;17.80;99.90
25280;DHT22;13225;47.804;12.116;2022-09-09T12:27:34;17.50;99.90
25280;DHT22;13225;47.804;12.116;2022-09-09T12:30:10;17.40;99.90
25280;DHT22;13225;47.804;12.116;2022-09-09T12:32:37;17.20;99.90
25280;DHT22;13225;47.804;12.116;2022-09-09T12:37:52;17.60;99.90
25280;DHT22;13225;47.804;12.116;2022-09-09T12:40:24;17.60;99.90
25280;DHT22;13225;47.804;12.116;2022-09-09T12:42:50;17.50;99.90
25280;DHT22;13225;47.804;12.116;2022-09-09T12:45:18;17.20;99.90
25280;DHT22;13225;47.804;12.116;2022-09-09T12:47:53;17.00;99.90
25280;DHT22;13225;47.804;12.116;2022-09-09T12:50:31;17.10;99.90
25280;DHT22;13225;47.804;12.116;2022-09-09T12:53:00;16.80;99.90
25280;DHT22;13225;47.804;12.116;2022-09-09T12:55:36;16.90;99.90
25280;DHT22;13225;47.804;12.116;2022-09-09T12:58:05;16.80;99.90
25280;DHT22;13225;47.804;12.116;2022-09-09T13:00:32;16.90;99.90
25280;DHT22;13225;47.804;12.116;2022-09-09T13:03:03;16.90;99.90
25280;DHT22;13225;47.804;12.116;2022-09-09T13:05:40;16.90;99.90
25280;DHT22;13225;47.804;12.116;2022-09-09T13:08:13;16.90;99.90
25280;DHT22;13225;47.804;12.116;2022-09-09T13:11:01;16.90;99.90
25280;DHT22;13225;47.804;12.116;2022-09-09T13:13:37;16.90;99.90
25280;DHT22;13225;47.804;12.116;2022-09-09T13:16:05;16.80;99.90
25280;DHT22;13225;47.804;12.116;2022-09-09T13:18:35;16.80;99.90
25280;DHT22;13225;47.804;12.116;2022-09-09T13:21:04;16.90;99.90
25280;DHT22;13225;47.804;12.116;2022-09-09T13:23:35;17.10;99.90
25280;DHT22;13225;47.804;12.116;2022-09-09T13:26:05;17.00;99.90
25280;DHT22;13225;47.804;12.116;2022-09-09T13:28:33;17.00;99.90
25280;DHT22;13225;47.804;12.116;2022-09-09T13:31:21;16.90;99.90
25280;DHT22;13225;47.804;12.116;2022-09-09T13:33:47;16.70;99.90
25280;DHT22;13225;47.804;12.116;2022-09-09T13:36:13;17.00;99.90
25280;DHT22;13225;47.804;12.116;2022-09-09T13:41:36;17.10;99.90
25280;DHT22;13225;47.804;12.116;2022-09-09T13:44:24;17.20;99.90
25280;DHT22;13225;47.804;12.116;2022-09-09T13:47:04;16.90;99.90
25280;DHT22;13225;47.804;12.116;2022-09-09T13:49:31;17.00;99.90
25280;DHT22;13225;47.804;12.116;2022-09-09T13:52:10;17.10;99.90
25280;DHT22;13225;47.804;12.116;2022-09-09T13:54:37;17.20;99.90
25280;DHT22;13225;47.804;12.116;2022-09-09T13:57:03;17.40;99.90
25280;DHT22;13225;47.804;12.116;2022-09-09T13:59:30;17.50;99.90
25280;DHT22;13225;47.804;12.116;2022-09-09T14:01:57;17.70;99.90
25280;DHT22;13225;47.804;12.116;2022-09-09T14:04:23;17.50;99.90
25280;DHT22;13225;47.804;12.116;2022-09-09T14:06:49;17.50;99.90
25280;DHT22;13225;47.804;12.116;2022-09-09T14:09:16;17.70;99.90
25280;DHT22;13225;47.804;12.116;2022-09-09T14:11:43;17.60;99.90
25280;DHT22;13225;47.804;12.116;2022-09-09T14:14:09;17.70;99.90
25280;DHT22;13225;47.804;12.116;2022-09-09T14:16:35;17.20;99.90
25280;DHT22;13225;47.804;12.116;2022-09-09T14:19:01;17.20;99.90
25280;DHT22;13225;47.804;12.116;2022-09-09T14:21:27;17.20;99.90
25280;DHT22;13225;47.804;12.116;2022-09-09T14:23:53;17.30;99.90
25280;DHT22;13225;47.804;12.116;2022-09-09T14:26:20;17.20;99.90
25280;DHT22;13225;47.804;12.116;2022-09-09T14:28:47;17.30;99.90
25280;DHT22;13225;47.804;12.116;2022-09-09T14:31:16;17.30;99.90
25280;DHT22;13225;47.804;12.116;2022-09-09T14:33:50;17.30;99.90
25280;DHT22;13225;47.804;12.116;2022-09-09T14:36:16;17.30;99.90
25280;DHT22;13225;47.804;12.116;2022-09-09T14:38:42;17.30;99.90
25280;DHT22;13225;47.804;12.116;2022-09-09T14:41:13;17.20;99.90
25280;DHT22;13225;47.804;12.116;2022-09-09T14:43:39;17.10;99.90
25280;DHT22;13225;47.804;12.116;2022-09-09T14:46:07;17.20;99.90
25280;DHT22;13225;47.804;12.116;2022-09-09T14:48:33;17.30;99.90
25280;DHT22;13225;47.804;12.116;2022-09-09T14:51:14;17.40;99.90
25280;DHT22;13225;47.804;12.116;2022-09-09T14:53:42;17.50;99.90
25280;DHT22;13225;47.804;12.116;2022-09-09T14:56:17;17.50;99.90
25280;DHT22;13225;47.804;12.116;2022-09-09T14:58:44;17.30;99.90
25280;DHT22;13225;47.804;12.116;2022-09-09T15:01:20;17.30;99.90
25280;DHT22;13225;47.804;12.116;2022-09-09T15:03:54;17.30;99.90
25280;DHT22;13225;47.804;12.116;2022-09-09T15:06:21;17.20;99.90
25280;DHT22;13225;47.804;12.116;2022-09-09T15:08:47;17.10;99.90
25280;DHT22;13225;47.804;12.116;2022-09-09T15:11:14;17.00;99.90
25280;DHT22;13225;47.804;12.116;2022-09-09T15:13:41;17.20;99.90
25280;DHT22;13225;47.804;12.116;2022-09-09T15:16:11;17.30;99.90
25280;DHT22;13225;47.804;12.116;2022-09-09T15:18:38;17.50;99.90
25280;DHT22;13225;47.804;12.116;2022-09-09T15:21:13;17.50;99.90
25280;DHT22;13225;47.804;12.116;2022-09-09T15:23:39;17.80;99.90
25280;DHT22;13225;47.804;12.116;2022-09-09T15:26:05;17.70;99.90
25280;DHT22;13225;47.804;12.116;2022-09-09T15:28:32;17.70;99.90
25280;DHT22;13225;47.804;12.116;2022-09-09T15:31:08;17.80;99.90
25280;DHT22;13225;47.804;12.116;2022-09-09T15:33:34;17.90;99.90
25280;DHT22;13225;47.804;12.116;2022-09-09T15:36:23;17.70;99.90
25280;DHT22;13225;47.804;12.116;2022-09-09T15:38:50;17.60;99.90
25280;DHT22;13225;47.804;12.116;2022-09-09T15:41:17;17.60;99.90
25280;DHT22;13225;47.804;12.116;2022-09-09T15:43:44;17.60;99.90
25280;DHT22;13225;47.804;12.116;2022-09-09T15:48:43;17.50;99.90
25280;DHT22;13225;47.804;12.116;2022-09-09T15:51:11;17.40;99.90
25280;DHT22;13225;47.804;12.116;2022-09-09T15:53:37;17.20;99.90
25280;DHT22;13225;47.804;12.116;2022-09-09T15:56:07;17.30;99.90
25280;DHT22;13225;47.804;12.116;2022-09-09T15:58:34;17.20;99.90
25280;DHT22;13225;47.804;12.116;2022-09-09T16:01:07;17.10;99.90
25280;DHT22;13225;47.804;12.116;2022-09-09T16:03:38;17.00;99.90
25280;DHT22;13225;47.804;12.116;2022-09-09T16:06:05;16.90;99.90
25280;DHT22;13225;47.804;12.116;2022-09-09T16:08:36;16.80;99.90
25280;DHT22;13225;47.804;12.116;2022-09-09T16:11:07;16.80;99.90
25280;DHT22;13225;47.804;12.116;2022-09-09T16:13:38;16.70;99.90
25280;DHT22;13225;47.804;12.116;2022-09-09T16:16:05;16.80;99.90
25280;DHT22;13225;47.804;12.116;2022-09-09T16:18:46;16.70;99.90
25280;DHT22;13225;47.804;12.116;2022-09-09T16:21:23;16.70;99.90
25280;DHT22;13225;47.804;12.116;2022-09-09T16:23:51;16.60;99.90
25280;DHT22;13225;47.804;12.116;2022-09-09T16:26:19;16.50;99.90
25280;DHT22;13225;47.804;12.116;2022-09-09T16:28:45;16.50;99.90
25280;DHT22;13225;47.804;12.116;2022-09-09T16:31:16;16.60;99.90
25280;DHT22;13225;47.804;12.116;2022-09-09T16:33:43;16.60;99.90
25280;DHT22;13225;47.804;12.116;2022-09-09T16:36:14;16.60;99.90
25280;DHT22;13225;47.804;12.116;2022-09-09T16:38:40;16.60;99.90
25280;DHT22;13225;47.804;12.116;2022-09-09T16:41:07;16.60;99.90
25280;DHT22;13225;47.804;12.116;2022-09-09T16:43:34;16.60;99.90
25280;DHT22;13225;47.804;12.116;2022-09-09T16:46:01;16.60;99.90
25280;DHT22;13225;47.804;12.116;2022-09-09T16:48:31;16.60;99.90
25280;DHT22;13225;47.804;12.116;2022-09-09T16:51:04;16.50;99.90
25280;DHT22;13225;47.804;12.116;2022-09-09T16:53:32;16.40;99.90
25280;DHT22;13225;47.804;12.116;2022-09-09T16:55:57;16.40;99.90
25280;DHT22;13225;47.804;12.116;2022-09-09T16:58:23;16.40;99.90
25280;DHT22;13225;47.804;12.116;2022-09-09T17:00:49;16.30;99.90
25280;DHT22;13225;47.804;12.116;2022-09-09T17:03:16;16.30;99.90
25280;DHT22;13225;47.804;12.116;2022-09-09T17:05:42;16.20;99.90
25280;DHT22;13225;47.804;12.116;2022-09-09T17:08:09;16.20;99.90
25280;DHT22;13225;47.804;12.116;2022-09-09T17:10:40;16.20;99.90
25280;DHT22;13225;47.804;12.116;2022-09-09T17:13:07;16.20;99.90
25280;DHT22;13225;47.804;12.116;2022-09-09T17:15:32;16.20;99.90
25280;DHT22;13225;47.804;12.116;2022-09-09T17:17:59;16.20;99.90
25280;DHT22;13225;47.804;12.116;2022-09-09T17:20:26;16.30;99.90
25280;DHT22;13225;47.804;12.116;2022-09-09T17:22:52;16.30;99.90
25280;DHT22;13225;47.804;12.116;2022-09-09T17:25:17;16.30;99.90
25280;DHT22;13225;47.804;12.116;2022-09-09T17:27:43;16.30;99.90
25280;DHT22;13225;47.804;12.116;2022-09-09T17:30:09;16.20;99.90
25280;DHT22;13225;47.804;12.116;2022-09-09T17:32:35;16.10;99.90
25280;DHT22;13225;47.804;12.116;2022-09-09T17:35:02;16.00;99.90
25280;DHT22;13225;47.804;12.116;2022-09-09T17:37:28;15.90;99.90
25280;DHT22;13225;47.804;12.116;2022-09-09T17:39:53;15.90;99.90
25280;DHT22;13225;47.804;12.116;2022-09-09T17:42:19;15.90;99.90
25280;DHT22;13225;47.804;12.116;2022-09-09T17:44:45;15.90;99.90
25280;DHT22;13225;47.804;12.116;2022-09-09T17:47:10;15.90;99.90
25280;DHT22;13225;47.804;12.116;2022-09-09T17:49:38;15.90;99.90
25280;DHT22;13225;47.804;12.116;2022-09-09T17:52:04;15.90;99.90